Latest Weather Observations for Ocean Reef

IDW60801

Issued at 9:05 pm WST Thursday 17 April 2014 (issued every 30 minutes, with the page automatically refreshed every 10 minutes)

About weather observations | Map of weather stations | Latest weather observations for WA | Other Formats
Station Details ID: 009214 Name: OCEAN REEF Lat: -31.76 Lon: 115.73 Height: 10.0 m
Data from the previous 72 hours. | See also: Recent months for locations in Western Australia
Date/Time
WST
Temp
°C
App
Temp
°C
Dew
Point
Rel
Hum
%
Delta-T
°C
Wind Press
QNH
hPa
Press
MSL
hPa
Rain
since 9 am
mm
Dir
 
Spd
km/h
Gust
km/h
Spd
kts
Gust
kts
17/09:00pm - - - - - SSE 15 26 8 14 - - -
17/08:30pm - - - - - SSE 17 24 9 13 - - -
17/08:00pm - - - - - SSE 17 22 9 12 - - -
17/07:30pm - - - - - S 32 39 17 21 - - -
17/07:00pm - - - - - S 35 41 19 22 - - -
17/06:30pm - - - - - S 32 37 17 20 - - -
17/06:00pm - - - - - S 30 37 16 20 - - -
17/05:30pm - - - - - S 32 37 17 20 - - -
17/05:00pm - - - - - S 32 35 17 19 - - -
17/04:30pm - - - - - SSW 30 37 16 20 - - -
17/04:00pm - - - - - SSW 28 32 15 17 - - -
17/03:30pm - - - - - SSW 30 33 16 18 - - -
17/03:00pm - - - - - SSW 28 33 15 18 - - -
17/02:30pm - - - - - SSW 26 30 14 16 - - -
17/02:00pm - - - - - SSW 22 30 12 16 - - -
17/01:30pm - - - - - SSW 20 26 11 14 - - -
17/01:00pm - - - - - S 19 24 10 13 - - -
17/12:30pm - - - - - SSW 15 19 8 10 - - -
17/12:00pm - - - - - SSW 17 22 9 12 - - -
17/11:30am - - - - - SSW 15 19 8 10 - - -
17/11:00am - - - - - SSW 15 17 8 9 - - -
17/10:30am - - - - - SSE 11 19 6 10 - - -
17/10:00am - - - - - E 11 17 6 9 - - -
17/09:30am - - - - - ENE 13 17 7 9 - - -
17/09:00am - - - - - ENE 15 19 8 10 - - -
17/08:30am - - - - - ENE 15 19 8 10 - - -
17/08:00am - - - - - ENE 17 24 9 13 - - -
17/07:30am - - - - - E 17 20 9 11 - - -
17/07:00am - - - - - ENE 17 19 9 10 - - -
17/06:30am - - - - - ENE 17 19 9 10 - - -
17/06:00am - - - - - E 17 19 9 10 - - -
17/05:30am - - - - - E 17 17 9 9 - - -
17/05:00am - - - - - E 17 20 9 11 - - -
17/04:30am - - - - - E 17 20 9 11 - - -
17/04:00am - - - - - E 17 19 9 10 - - -
17/03:30am - - - - - E 15 19 8 10 - - -
17/03:00am - - - - - ESE 15 19 8 10 - - -
17/02:30am - - - - - ESE 17 19 9 10 - - -
17/02:00am - - - - - ESE 17 20 9 11 - - -
17/01:30am - - - - - ESE 15 19 8 10 - - -
17/01:00am - - - - - ESE 15 17 8 9 - - -
17/12:30am - - - - - SE 17 19 9 10 - - -
17/12:00am - - - - - SE 15 20 8 11 - - -
 
Date/Time
WST
Temp
°C
App
Temp
°C
Dew
Point
Rel
Hum
%
Delta-T
°C
Wind Press
QNH
hPa
Press
MSL
hPa
Rain
since 9 am
mm
Dir
 
Spd
km/h
Gust
km/h
Spd
kts
Gust
kts
16/11:30pm - - - - - SE 15 19 8 10 - - -
16/11:00pm - - - - - SE 15 20 8 11 - - -
16/10:30pm - - - - - SE 15 19 8 10 - - -
16/10:00pm - - - - - SE 17 22 9 12 - - -
16/09:30pm - - - - - SE 15 20 8 11 - - -
16/09:00pm - - - - - S 28 33 15 18 - - -
16/08:30pm - - - - - S 28 33 15 18 - - -
16/08:00pm - - - - - S 28 33 15 18 - - -
16/07:30pm - - - - - S 26 33 14 18 - - -
16/07:00pm - - - - - S 28 32 15 17 - - -
16/06:30pm - - - - - S 28 33 15 18 - - -
16/06:00pm - - - - - SSW 26 30 14 16 - - -
16/05:30pm - - - - - SSW 28 33 15 18 - - -
16/05:00pm - - - - - SSW 28 35 15 19 - - -
16/04:30pm - - - - - SSW 30 37 16 20 - - -
16/04:00pm - - - - - SSW 30 35 16 19 - - -
16/03:30pm - - - - - SSW 30 35 16 19 - - -
16/03:00pm - - - - - SSW 28 33 15 18 - - -
16/02:30pm - - - - - SSW 28 32 15 17 - - -
16/02:00pm - - - - - SW 26 30 14 16 - - -
16/01:30pm - - - - - SW 26 30 14 16 - - -
16/01:00pm - - - - - SSW 22 26 12 14 - - -
16/12:30pm - - - - - SSW 17 20 9 11 - - -
16/12:00pm - - - - - SW 17 20 9 11 - - -
16/11:30am - - - - - SW 13 17 7 9 - - -
16/11:00am - - - - - SW 11 15 6 8 - - -
16/10:30am - - - - - ENE 7 13 4 7 - - -
16/10:00am - - - - - E 11 15 6 8 - - -
16/09:30am - - - - - E 17 24 9 13 - - -
16/09:00am - - - - - E 15 20 8 11 - - -
16/08:30am - - - - - ENE 17 26 9 14 - - -
16/08:00am - - - - - ENE 17 26 9 14 - - -
16/07:30am - - - - - E 13 19 7 10 - - -
16/07:00am - - - - - E 13 19 7 10 - - -
16/06:30am - - - - - ESE 13 15 7 8 - - -
16/06:00am - - - - - SE 11 15 6 8 - - -
16/05:30am - - - - - ESE 11 15 6 8 - - -
16/05:00am - - - - - SE 13 17 7 9 - - -
16/04:30am - - - - - SSE 13 15 7 8 - - -
16/04:00am - - - - - SE 13 17 7 9 - - -
16/03:30am - - - - - SE 13 17 7 9 - - -
16/03:00am - - - - - SSE 15 20 8 11 - - -
16/02:30am - - - - - S 24 30 13 16 - - -
16/02:00am - - - - - SSE 13 20 7 11 - - -
16/01:30am - - - - - S 30 35 16 19 - - -
16/01:00am - - - - - S 26 32 14 17 - - -
16/12:30am - - - - - SE 9 15 5 8 - - -
16/12:00am - - - - - ESE 11 13 6 7 - - -
 
Date/Time
WST
Temp
°C
App
Temp
°C
Dew
Point
Rel
Hum
%
Delta-T
°C
Wind Press
QNH
hPa
Press
MSL
hPa
Rain
since 9 am
mm
Dir
 
Spd
km/h
Gust
km/h
Spd
kts
Gust
kts
15/11:30pm - - - - - SSE 13 17 7 9 - - -
15/11:00pm - - - - - S 20 26 11 14 - - -
15/10:30pm - - - - - S 15 17 8 9 - - -
15/10:00pm - - - - - SSW 13 17 7 9 - - -
15/09:30pm - - - - - S 17 19 9 10 - - -
15/09:00pm - - - - - SSW 17 22 9 12 - - -
15/08:30pm - - - - - S 19 24 10 13 - - -
15/08:00pm - - - - - SSW 19 28 10 15 - - -
15/07:30pm - - - - - SW 15 19 8 10 - - -
15/07:00pm - - - - - SW 20 26 11 14 - - -
15/06:30pm - - - - - SW 19 26 10 14 - - -
15/06:00pm - - - - - SSW 20 28 11 15 - - -
15/05:30pm - - - - - SSW 24 28 13 15 - - -
15/05:00pm - - - - - SW 26 30 14 16 - - -
15/04:30pm - - - - - SW 22 28 12 15 - - -
15/04:00pm - - - - - SW 20 28 11 15 - - -
15/03:30pm - - - - - SW 19 24 10 13 - - -
15/03:00pm - - - - - SW 19 26 10 14 - - -
15/02:30pm - - - - - SW 20 28 11 15 - - -
15/02:00pm - - - - - SW 22 28 12 15 - - -
15/01:30pm - - - - - SW 28 33 15 18 - - -
15/01:00pm - - - - - SW 26 30 14 16 - - -
15/12:30pm - - - - - SW 24 30 13 16 - - -
15/12:00pm - - - - - WSW 20 26 11 14 - - -
15/11:30am - - - - - SW 19 24 10 13 - - -
15/11:00am - - - - - WSW 15 19 8 10 - - -
15/10:30am - - - - - WSW 13 15 7 8 - - -
15/10:00am - - - - - SW 13 19 7 10 - - -
15/09:30am - - - - - SW 13 17 7 9 - - -
15/09:00am - - - - - WSW 13 15 7 8 - - -
15/08:30am - - - - - WSW 9 13 5 7 - - -
15/08:00am - - - - - SW 11 15 6 8 - - -
15/07:30am - - - - - ENE 6 9 3 5 - - -
15/07:00am - - - - - SSW 11 15 6 8 - - -
15/06:30am - - - - - SSW 13 15 7 8 - - -
15/06:00am - - - - - SW 15 17 8 9 - - -
15/05:30am - - - - - SW 15 17 8 9 - - -
15/05:00am - - - - - SW 13 17 7 9 - - -
15/04:30am - - - - - SW 17 19 9 10 - - -
15/04:00am - - - - - SW 19 24 10 13 - - -
15/03:30am - - - - - SW 15 20 8 11 - - -
15/03:00am - - - - - SW 17 20 9 11 - - -
15/02:30am - - - - - SW 17 19 9 10 - - -
15/02:00am - - - - - SW 13 19 7 10 - - -
15/01:30am - - - - - SW 11 13 6 7 - - -
15/01:00am - - - - - WSW 11 17 6 9 - - -
15/12:30am - - - - - SW 11 15 6 8 - - -
15/12:00am - - - - - SW 11 13 6 7 - - -
 
Date/Time
WST
Temp
°C
App
Temp
°C
Dew
Point
Rel
Hum
%
Delta-T
°C
Wind Press
QNH
hPa
Press
MSL
hPa
Rain
since 9 am
mm
Dir
 
Spd
km/h
Gust
km/h
Spd
kts
Gust
kts
14/11:30pm - - - - - SW 11 15 6 8 - - -
14/11:00pm - - - - - SW 13 15 7 8 - - -
14/10:30pm - - - - - SSW 11 13 6 7 - - -
14/10:00pm - - - - - SSW 13 15 7 8 - - -
14/09:30pm - - - - - S 15 17 8 9 - - -

Other Formats:

Comma delimited format used in spreadsheet applications
http://www.bom.gov.au/fwo/IDW60801/IDW60801.94607.axf

JavaScript Object Notation format (JSON) in row-major order
http://www.bom.gov.au/fwo/IDW60801/IDW60801.94607.json